Irving, TX (75014)

8:13 AM CST on December 04, 2016 (GMT -0600)
Toler Lane, Irving, Texas USA | | Change Station

Elev 551 ft 32.84 °N, 96.96 °W | Updated 1 second ago

Overcast
Overcast
47.8 °F
Feels Like 48 °F
N
0.0
Wind Variable Wind from NNW
Gusts 0.0 mph

Today
High -- | Low -- °F
--% Chance of Precip.
Yesterday
High -- | Low -- °F
Precip. -- in
Pressure 30.03 in
Visibility 10.0 miles
Clouds Mostly Cloudy 600 ft
Overcast 900 ft
Windchill 48 °F
Dew Point 46 °F
Humidity 93%
Rainfall 0.05 in
Snow Depth Not available.
7:15 AM 5:21 PM
Waxing Crescent, 23% visible
METAR KDAL 041353Z 36006KT 10SM BKN006 OVC009 09/08 A3003 RMK AO2 SLP169 T00940078
Pressure 30.03 in
Visibility 10.0 miles
Clouds Mostly Cloudy 600 ft
Overcast 900 ft
Windchill 48 °F
Dew Point 46 °F
Humidity 93%
Rainfall 0.05 in
Snow Depth Not available.
7:15 AM 5:21 PM
Waxing Crescent, 23% visible
METAR KDAL 041353Z 36006KT 10SM BKN006 OVC009 09/08 A3003 RMK AO2 SLP169 T00940078

10-Day Weather Forecast

Almanac

Astronomy

Dec. 04, 2016 Rise Set
Actual Time
Civil Twilight
Nautical Twilight
Astronomical Twilight
Moon
Length of Visible Light
Length of Day
Tomorrow will be .
, % of the Moon is Illuminated

Today's Extremes

State Highs State Lows

Community

WunderPhotos

Upload Photos

1,955,598 photos uploaded!

WunderBlog® & News

Nearby

Air Quality

  Air Quality AQ Index Pollutant
Not available.

Snow Depth

Station Depth Elevation

Earthquake Activity

City Distance Mag. Time & Date
Minimum magnitude displayed is 2.5.

Coastal Water Temperatures

Place Temperature

Stations

Nearby Weather Stations

Station Location Temp. Windchill Dew Point Humidity Wind Precip. Elev Updated Type
                   

Watches & Warnings

There are currently no watches in effect.